Time;durP1;ratioP1;P1;durP2;ratioP2;P2;SDS_P1;SDS_P2;PMS_P1;PMS_P2;Temp;Humidity;BMP_temperature;BMP_pressure;BME280_temperature;BME280_humidity;BME280_pressure;Samples;Min_cycle;Max_cycle;Signal;HPM_P1;HPM_P2
2022/03/11 00:00:34;;;;;;;16.75;9.38;;;;;;;6.23;64.44;101712.16;5259134;28;20040;-78
2022/03/11 00:03:05;;;;;;;15.07;8.20;;;;;;;6.23;64.50;101698.91;5276300;28;20470;-78
2022/03/11 00:05:37;;;;;;;17.73;8.68;;;;;;;6.16;64.82;101691.44;5281815;28;20027;-78
2022/03/11 00:08:09;;;;;;;11.88;7.75;;;;;;;6.23;65.01;101698.91;5248998;28;20107;-77
2022/03/11 00:10:40;;;;;;;13.95;9.30;;;;;;;6.27;64.74;101690.78;5283431;28;20116;-78
2022/03/11 00:13:11;;;;;;;14.98;8.07;;;;;;;6.26;64.67;101697.91;5283023;28;20473;-77
2022/03/11 00:15:43;;;;;;;13.82;8.55;;;;;;;6.18;64.70;101686.91;5265448;28;20032;-78
2022/03/11 00:18:14;;;;;;;12.73;8.38;;;;;;;6.16;65.59;101689.63;5262391;28;20366;-77
2022/03/11 00:20:46;;;;;;;15.82;9.15;;;;;;;6.09;66.04;101683.00;5283942;28;30780;-78
2022/03/11 00:23:17;;;;;;;15.52;9.10;;;;;;;5.99;67.71;101676.56;5265551;28;20520;-78
2022/03/11 00:25:48;;;;;;;16.15;9.27;;;;;;;6.02;68.18;101692.28;5272167;28;20144;-77
2022/03/11 00:28:20;;;;;;;14.32;8.75;;;;;;;5.93;68.68;101688.34;5280661;28;20099;-78
2022/03/11 00:30:51;;;;;;;13.32;8.90;;;;;;;5.91;70.21;101694.66;5265056;28;20195;-77
2022/03/11 00:33:22;;;;;;;12.25;8.75;;;;;;;5.90;70.42;101690.31;5282776;28;20366;-77
2022/03/11 00:35:54;;;;;;;15.23;9.38;;;;;;;5.85;71.01;101687.94;5279183;28;20029;-77
2022/03/11 00:38:25;;;;;;;17.40;9.63;;;;;;;5.78;72.60;101686.59;5273383;28;20355;-77
2022/03/11 00:40:56;;;;;;;15.85;9.55;;;;;;;5.69;73.38;101680.06;5264757;28;20342;-77
2022/03/11 00:43:28;;;;;;;15.85;9.57;;;;;;;5.61;75.41;101677.88;5283494;28;20065;-77
2022/03/11 00:45:59;;;;;;;13.88;9.95;;;;;;;5.57;76.00;101676.31;5277662;28;20108;-77
2022/03/11 00:48:31;;;;;;;19.50;10.10;;;;;;;5.55;77.66;101675.56;5282211;28;20071;-77
2022/03/11 00:51:02;;;;;;;14.18;9.90;;;;;;;5.50;78.41;101674.97;5282730;28;20029;-77
2022/03/11 00:53:34;;;;;;;17.00;10.07;;;;;;;5.45;78.92;101672.63;5283736;28;20461;-77
2022/03/11 00:56:05;;;;;;;15.43;9.45;;;;;;;5.41;80.01;101670.22;5257263;28;20033;-78
2022/03/11 00:58:36;;;;;;;16.63;11.18;;;;;;;5.39;80.87;101670.31;5282939;28;20025;-77
2022/03/11 01:01:08;;;;;;;18.20;10.25;;;;;;;5.38;81.58;101663.34;5281326;28;20029;-77
2022/03/11 01:03:39;;;;;;;13.63;9.30;;;;;;;5.27;81.09;101653.34;5274792;28;20067;-77
2022/03/11 01:06:10;;;;;;;14.02;9.13;;;;;;;5.28;82.47;101649.78;5279680;28;20037;-78
2022/03/11 01:08:41;;;;;;;18.08;10.15;;;;;;;5.29;83.04;101655.91;5283503;28;20032;-78
2022/03/11 01:11:13;;;;;;;17.95;10.45;;;;;;;5.24;82.86;101663.25;5281850;28;20025;-77
2022/03/11 01:13:44;;;;;;;17.50;10.32;;;;;;;5.21;83.24;101652.88;5272608;28;20032;-77
2022/03/11 01:16:15;;;;;;;15.23;10.20;;;;;;;5.26;84.04;101645.53;5282775;28;20130;-78
2022/03/11 01:18:47;;;;;;;18.33;10.20;;;;;;;5.21;84.01;101648.44;5283371;28;20029;-78
2022/03/11 01:21:18;;;;;;;14.73;9.52;;;;;;;5.24;83.60;101644.75;5263613;28;38364;-77
2022/03/11 01:23:50;;;;;;;16.20;9.98;;;;;;;5.25;83.78;101643.81;5264461;28;20083;-77
2022/03/11 01:26:21;;;;;;;15.90;9.05;;;;;;;5.26;83.17;101640.25;5278944;28;20048;-77
2022/03/11 01:28:53;;;;;;;17.45;11.30;;;;;;;5.22;83.77;101628.94;5282434;28;20040;-78
2022/03/11 01:31:24;;;;;;;14.75;10.10;;;;;;;5.24;83.42;101631.50;5282522;28;20170;-77
2022/03/11 01:33:55;;;;;;;18.52;9.98;;;;;;;5.18;83.45;101623.94;5282636;28;20033;-77
2022/03/11 01:36:26;;;;;;;14.07;9.80;;;;;;;5.07;84.32;101620.13;5272399;28;20133;-78
2022/03/11 01:38:58;;;;;;;15.13;9.48;;;;;;;5.05;85.53;101618.50;5282788;28;20021;-78
2022/03/11 01:41:29;;;;;;;14.35;9.93;;;;;;;4.97;85.69;101615.44;5263666;28;20035;-78
2022/03/11 01:44:06;;;;;;;17.13;10.23;;;;;;;4.97;86.47;101621.59;5264876;28;20105;-78
2022/03/11 01:46:38;;;;;;;13.68;9.50;;;;;;;4.96;86.43;101614.59;5282190;28;20213;-77
2022/03/11 01:49:11;;;;;;;14.40;9.27;;;;;;;4.92;86.91;101605.97;5281807;28;20025;-78
2022/03/11 01:51:43;;;;;;;15.90;10.05;;;;;;;4.89;86.69;101608.81;5263890;28;20083;-78
2022/03/11 01:54:15;;;;;;;15.07;9.98;;;;;;;4.86;87.62;101597.56;5282838;28;20021;-78
2022/03/11 01:56:46;;;;;;;16.10;10.25;;;;;;;4.85;87.68;101594.03;5280315;28;20444;-78
2022/03/11 01:59:17;;;;;;;14.40;9.15;;;;;;;4.85;89.93;101593.19;5281503;28;20108;-78
2022/03/11 02:01:48;;;;;;;15.20;10.18;;;;;;;4.81;88.19;101586.41;5278621;28;20125;-78
2022/03/11 02:04:20;;;;;;;17.92;10.68;;;;;;;4.76;88.05;101583.16;5282761;28;20021;-77
2022/03/11 02:06:52;;;;;;;16.15;10.10;;;;;;;4.74;87.93;101581.44;5282254;28;20044;-78
2022/03/11 02:09:24;;;;;;;15.07;9.45;;;;;;;4.75;88.41;101579.63;5283206;28;20032;-77
2022/03/11 02:11:55;;;;;;;18.20;9.93;;;;;;;4.75;88.42;101569.06;5289963;28;20374;-78
2022/03/11 02:14:26;;;;;;;12.15;8.63;;;;;;;4.70;88.48;101572.00;5295332;28;20453;-77
2022/03/11 02:16:57;;;;;;;15.25;9.48;;;;;;;4.76;88.41;101567.28;5299071;28;20036;-77
2022/03/11 02:19:29;;;;;;;16.42;9.80;;;;;;;4.77;86.83;101558.41;5296504;28;20462;-78
2022/03/11 02:22:01;;;;;;;16.13;10.93;;;;;;;4.80;86.62;101561.72;5298454;28;20110;-77
2022/03/11 02:24:32;;;;;;;16.27;9.30;;;;;;;4.82;85.31;101548.44;5283834;28;20025;-77
2022/03/11 02:27:04;;;;;;;18.77;10.15;;;;;;;4.86;85.23;101552.63;5281602;28;39298;-78
2022/03/11 02:29:37;;;;;;;14.32;9.55;;;;;;;4.87;83.97;101554.31;5274800;28;20017;-77
2022/03/11 02:32:09;;;;;;;16.17;9.32;;;;;;;4.81;84.08;101547.59;5282280;28;20127;-78
2022/03/11 02:34:40;;;;;;;14.63;9.60;;;;;;;4.83;84.05;101544.84;5281742;28;20108;-77
2022/03/11 02:37:11;;;;;;;13.05;9.13;;;;;;;4.89;82.35;101540.06;5281763;28;20037;-77
2022/03/11 02:39:43;;;;;;;16.75;9.43;;;;;;;4.91;80.89;101532.06;5280431;28;20035;-77
2022/03/11 02:42:14;;;;;;;18.60;9.95;;;;;;;4.86;81.21;101534.13;5271299;28;29726;-77
2022/03/11 02:44:45;;;;;;;16.40;9.82;;;;;;;4.88;80.92;101532.22;5282449;28;20527;-77
2022/03/11 02:47:16;;;;;;;14.38;9.50;;;;;;;4.90;79.52;101525.06;5263945;28;20021;-77
2022/03/11 02:49:48;;;;;;;16.73;10.13;;;;;;;4.91;79.05;101532.06;5280838;28;20029;-77
2022/03/11 02:52:19;;;;;;;15.63;10.30;;;;;;;4.96;80.43;101534.41;5284500;28;20061;-77
2022/03/11 02:54:50;;;;;;;15.25;9.45;;;;;;;4.82;79.67;101525.50;5281528;28;20034;-77
2022/03/11 02:57:22;;;;;;;15.00;9.18;;;;;;;4.90;78.42;101525.91;5281350;28;20091;-77
2022/03/11 02:59:53;;;;;;;14.45;9.23;;;;;;;4.92;77.84;101517.88;5282123;28;20338;-77
2022/03/11 03:02:24;;;;;;;14.57;9.52;;;;;;;4.92;77.29;101517.88;5277175;28;20033;-77
2022/03/11 03:04:55;;;;;;;15.55;9.88;;;;;;;4.88;77.09;101517.22;5281507;28;20026;-77
2022/03/11 03:07:27;;;;;;;14.40;9.32;;;;;;;4.95;77.17;101524.81;5281384;28;20579;-77
2022/03/11 03:09:58;;;;;;;15.65;9.40;;;;;;;4.91;76.58;101516.19;5281246;28;20058;-77
2022/03/11 03:12:29;;;;;;;15.27;10.20;;;;;;;4.96;75.88;101519.44;5281502;28;40082;-77
2022/03/11 03:15:01;;;;;;;14.00;9.35;;;;;;;4.92;76.09;101513.44;5285301;28;20035;-77
2022/03/11 03:17:32;;;;;;;14.73;10.05;;;;;;;4.93;75.74;101514.31;5284915;28;20384;-77
2022/03/11 03:20:05;;;;;;;13.38;9.43;;;;;;;5.01;74.85;101521.78;5285257;28;20063;-77
2022/03/11 03:22:36;;;;;;;13.80;9.48;;;;;;;4.98;74.48;101520.19;5284817;28;20025;-77
2022/03/11 03:25:09;;;;;;;16.40;9.20;;;;;;;4.96;74.48;101515.91;5284439;28;20029;-77
2022/03/11 03:27:40;;;;;;;16.77;9.38;;;;;;;4.95;73.86;101515.06;5283451;28;20450;-77
2022/03/11 03:30:12;;;;;;;14.02;8.95;;;;;;;5.00;73.75;101514.81;5284784;28;20036;-77
2022/03/11 03:32:43;;;;;;;13.45;8.73;;;;;;;4.95;73.22;101511.59;5284991;28;20028;-77
2022/03/11 03:35:15;;;;;;;17.20;9.57;;;;;;;4.98;72.88;101514.03;5284174;28;20144;-77
2022/03/11 03:37:47;;;;;;;15.15;9.43;;;;;;;4.95;72.74;101504.50;5282601;28;20059;-77
2022/03/11 03:40:19;;;;;;;13.57;9.10;;;;;;;4.99;72.23;101502.53;5266298;28;20025;-77
2022/03/11 03:42:50;;;;;;;16.98;8.98;;;;;;;4.97;72.04;101504.41;5283879;28;20025;-77
2022/03/11 03:45:21;;;;;;;14.75;9.32;;;;;;;4.96;72.50;101500.91;5284616;28;20104;-77
2022/03/11 03:47:52;;;;;;;14.88;9.68;;;;;;;4.90;72.66;101501.25;5284025;28;20481;-77
2022/03/11 03:50:24;;;;;;;13.80;8.77;;;;;;;4.87;73.36;101509.38;5268197;28;20499;-77
2022/03/11 03:52:55;;;;;;;15.15;8.63;;;;;;;4.78;73.38;101504.63;5265890;28;20354;-77
2022/03/11 03:55:26;;;;;;;13.30;9.27;;;;;;;4.76;74.24;101509.16;5283832;28;20037;-77
2022/03/11 03:57:58;;;;;;;14.43;9.55;;;;;;;4.66;75.36;101501.75;5271325;28;20078;-77
2022/03/11 04:00:29;;;;;;;13.75;9.25;;;;;;;4.63;76.12;101503.69;5284700;28;20027;-77
2022/03/11 04:03:00;;;;;;;17.60;9.30;;;;;;;4.58;76.32;101493.41;5284161;28;20410;-77
2022/03/11 04:05:32;;;;;;;14.30;9.15;;;;;;;4.53;77.06;101496.31;5284565;28;20076;-77
2022/03/11 04:08:03;;;;;;;14.63;9.25;;;;;;;4.56;76.98;101497.94;5283911;28;20389;-77
2022/03/11 04:10:35;;;;;;;14.70;9.00;;;;;;;4.54;77.68;101498.03;5279490;28;20132;-78
2022/03/11 04:13:06;;;;;;;13.75;8.60;;;;;;;4.54;76.58;101494.50;5283562;28;20132;-78
2022/03/11 04:15:38;;;;;;;15.20;9.05;;;;;;;4.48;77.46;101497.50;5283979;28;20037;-77
2022/03/11 04:18:09;;;;;;;15.43;9.02;;;;;;;4.53;76.43;101496.31;5283365;28;20362;-77
2022/03/11 04:20:40;;;;;;;15.18;9.07;;;;;;;4.48;76.13;101486.94;5271395;28;20033;-77
2022/03/11 04:23:12;;;;;;;12.73;8.05;;;;;;;4.54;76.44;101494.50;5265842;28;20727;-77
2022/03/11 04:25:43;;;;;;;12.45;8.38;;;;;;;4.51;76.16;101492.06;5283034;28;20040;-77
2022/03/11 04:28:14;;;;;;;13.93;8.90;;;;;;;4.48;75.86;101484.31;5284323;28;20029;-77
2022/03/11 04:30:45;;;;;;;13.02;9.05;;;;;;;4.50;75.31;101488.53;5283801;28;20039;-77
2022/03/11 04:33:17;;;;;;;12.10;8.50;;;;;;;4.46;74.70;101460.59;5284255;28;20442;-77
2022/03/11 04:35:48;;;;;;;14.70;8.45;;;;;;;4.53;74.10;101480.44;5272976;28;20488;-77
2022/03/11 04:38:19;;;;;;;12.18;7.53;;;;;;;4.60;73.24;101474.81;5284435;28;20029;-77
2022/03/11 04:40:51;;;;;;;12.82;9.15;;;;;;;4.59;73.47;101481.88;5280477;28;20410;-77
2022/03/11 04:43:22;;;;;;;10.50;8.10;;;;;;;4.69;71.36;101483.06;5277334;28;20052;-77
2022/03/11 04:45:54;;;;;;;12.63;8.65;;;;;;;4.79;70.49;101474.63;5283754;28;20037;-77
2022/03/11 04:48:25;;;;;;;14.55;8.00;;;;;;;4.68;69.77;101452.31;5284123;28;20040;-77
2022/03/11 04:50:56;;;;;;;11.90;8.55;;;;;;;4.80;69.73;101469.22;5283517;28;20029;-77
2022/03/11 04:53:28;;;;;;;13.95;8.25;;;;;;;4.79;72.19;101470.16;5282224;28;20151;-78
2022/03/11 04:55:59;;;;;;;10.80;7.68;;;;;;;4.73;69.92;101459.94;5258125;28;20071;-78
2022/03/11 04:58:30;;;;;;;11.35;8.63;;;;;;;4.73;70.00;101478.44;5281408;28;20433;-78
2022/03/11 05:01:02;;;;;;;13.35;8.50;;;;;;;4.68;70.02;101470.81;5256317;28;20426;-78
2022/03/11 05:03:34;;;;;;;13.02;7.72;;;;;;;4.80;69.67;101486.88;5278473;28;20051;-78
2022/03/11 05:06:05;;;;;;;11.45;8.20;;;;;;;4.78;69.33;101471.09;5282312;28;20107;-78
2022/03/11 05:08:37;;;;;;;13.25;8.05;;;;;;;4.79;69.02;101477.25;5276334;28;20030;-78
2022/03/11 05:11:08;;;;;;;12.00;8.32;;;;;;;4.77;69.39;101473.81;5280936;28;20021;-78
2022/03/11 05:13:39;;;;;;;13.88;8.52;;;;;;;4.77;70.09;101465.91;5281581;28;20405;-78
2022/03/11 05:16:11;;;;;;;13.75;8.02;;;;;;;4.71;69.36;101469.75;5282405;28;20106;-78
2022/03/11 05:18:42;;;;;;;12.73;7.65;;;;;;;4.71;70.24;101475.88;5281128;28;20481;-78
2022/03/11 05:21:13;;;;;;;11.90;7.68;;;;;;;4.73;70.43;101467.88;5282184;28;20032;-78
2022/03/11 05:23:45;;;;;;;13.88;7.95;;;;;;;4.72;70.40;101474.97;5281934;28;20098;-78
2022/03/11 05:26:25;;;;;;;9.38;7.93;;;;;;;4.76;69.72;101457.13;5277317;28;20030;-78
2022/03/11 05:28:58;;;;;;;15.75;8.52;;;;;;;4.74;70.44;101464.31;5263985;28;20036;-78
2022/03/11 05:31:30;;;;;;;10.65;7.63;;;;;;;4.72;72.91;101458.25;5283082;28;20032;-79
2022/03/11 05:34:01;;;;;;;15.27;8.32;;;;;;;4.70;71.00;101454.88;5264228;28;20412;-78
2022/03/11 05:36:33;;;;;;;12.15;7.90;;;;;;;4.62;70.84;101454.44;5282434;28;20051;-78
2022/03/11 05:39:05;;;;;;;15.52;8.38;;;;;;;4.60;72.01;101462.47;5282826;28;20055;-79
2022/03/11 05:41:36;;;;;;;10.57;7.65;;;;;;;4.59;72.93;101459.91;5265219;28;20025;-78
2022/03/11 05:44:07;;;;;;;11.93;7.80;;;;;;;4.59;73.34;101468.66;5281559;28;20465;-78
2022/03/11 05:46:39;;;;;;;10.77;7.72;;;;;;;4.58;72.81;101453.78;5252365;28;20479;-78
2022/03/11 05:49:11;;;;;;;13.20;8.07;;;;;;;4.62;73.60;101460.56;5282160;28;20079;-78
2022/03/11 05:51:42;;;;;;;12.73;8.70;;;;;;;4.58;74.25;101458.22;5280398;28;20031;-78
2022/03/11 05:54:14;;;;;;;14.82;7.60;;;;;;;4.55;74.40;101454.78;5259084;28;20029;-79
2022/03/11 05:56:50;;;;;;;11.23;7.40;;;;;;;4.67;74.74;101458.53;5278331;28;20056;-78
2022/03/11 05:59:22;;;;;;;10.75;7.82;;;;;;;4.67;74.78;101449.75;5281396;28;20466;-79
2022/03/11 06:01:53;;;;;;;12.10;8.10;;;;;;;4.62;75.22;101450.00;5279797;28;20032;-78
2022/03/11 06:04:24;;;;;;;14.77;7.78;;;;;;;4.63;75.42;101449.06;5262640;28;20055;-78
2022/03/11 06:06:59;;;;;;;13.10;7.80;;;;;;;4.70;75.34;101447.78;5279393;28;20466;-78
2022/03/11 06:09:30;;;;;;;11.85;8.07;;;;;;;4.77;75.99;101442.13;5262802;28;20390;-78
2022/03/11 06:12:02;;;;;;;12.35;7.95;;;;;;;4.72;75.33;101440.59;5262274;28;20124;-78
2022/03/11 06:14:34;;;;;;;12.77;8.00;;;;;;;4.80;75.95;101449.88;5282449;28;20033;-78
2022/03/11 06:17:05;;;;;;;13.55;7.68;;;;;;;4.82;75.65;101454.16;5283805;28;20116;-78
2022/03/11 06:19:36;;;;;;;12.15;7.78;;;;;;;4.79;76.34;101445.53;5281138;28;20021;-79
2022/03/11 06:22:08;;;;;;;11.70;7.93;;;;;;;4.76;77.53;101451.00;5280600;28;20066;-79
2022/03/11 06:24:39;;;;;;;13.45;8.63;;;;;;;4.78;77.97;101457.88;5281299;28;20387;-79
2022/03/11 06:27:10;;;;;;;12.43;8.07;;;;;;;4.79;78.42;101461.41;5280432;28;20032;-79
2022/03/11 06:29:42;;;;;;;12.45;8.20;;;;;;;4.80;78.41;101455.16;5276998;28;20029;-79
2022/03/11 06:32:13;;;;;;;11.15;7.47;;;;;;;4.84;79.30;101452.25;5281970;28;20029;-79
2022/03/11 06:34:44;;;;;;;12.68;8.00;;;;;;;4.87;79.54;101457.38;5282258;28;20024;-79
2022/03/11 06:37:16;;;;;;;10.82;8.10;;;;;;;4.84;78.94;101435.53;5282217;28;20045;-79
2022/03/11 06:39:47;;;;;;;13.43;8.18;;;;;;;4.95;80.40;101456.06;5281808;28;20084;-79
2022/03/11 06:42:18;;;;;;;14.60;8.30;;;;;;;5.28;79.40;101453.19;5281352;28;20123;-78
2022/03/11 06:44:49;;;;;;;13.23;8.05;;;;;;;5.59;76.10;101448.63;5281950;28;20032;-79
2022/03/11 06:47:21;;;;;;;11.32;7.97;;;;;;;6.02;73.86;101448.63;5284638;28;20025;-79
2022/03/11 06:49:52;;;;;;;13.00;8.57;;;;;;;6.35;69.19;101453.53;5284923;28;20049;-80
2022/03/11 06:52:23;;;;;;;11.25;7.88;;;;;;;6.68;66.54;101451.41;5286027;28;20044;-79
2022/03/11 06:54:55;;;;;;;13.32;8.25;;;;;;;7.02;63.64;101452.66;5285321;28;20061;-79
2022/03/11 06:57:26;;;;;;;14.25;8.98;;;;;;;7.35;62.39;101453.94;5284855;28;20025;-79
2022/03/11 06:59:57;;;;;;;14.77;8.30;;;;;;;7.62;59.31;101452.94;5285489;28;20032;-79
2022/03/11 07:02:30;;;;;;;14.80;8.65;;;;;;;7.89;58.27;101458.13;5286183;28;20032;-79
2022/03/11 07:05:01;;;;;;;12.13;8.40;;;;;;;7.78;56.86;101445.59;5285583;28;20029;-79
2022/03/11 07:07:33;;;;;;;12.00;8.40;;;;;;;7.62;56.84;101447.66;5284864;28;20031;-79
2022/03/11 07:10:12;;;;;;;14.10;8.23;;;;;;;7.90;57.29;101442.06;5263186;28;20032;-79
2022/03/11 07:12:43;;;;;;;13.00;8.80;;;;;;;8.45;55.83;101439.88;5284320;28;20124;-79
2022/03/11 07:15:15;;;;;;;13.52;8.57;;;;;;;8.76;54.81;101439.38;5285189;28;20155;-79
2022/03/11 07:17:48;;;;;;;13.18;8.40;;;;;;;9.26;52.56;101430.16;5285062;28;20051;-80
2022/03/11 07:20:19;;;;;;;13.18;9.18;;;;;;;9.54;50.30;101430.66;5278122;28;20032;-79
2022/03/11 07:22:51;;;;;;;13.95;9.05;;;;;;;9.96;49.84;101433.53;5267100;28;20068;-79
2022/03/11 07:25:22;;;;;;;15.07;8.88;;;;;;;10.31;48.38;101431.63;5285420;28;20422;-80
2022/03/11 07:27:53;;;;;;;18.67;9.82;;;;;;;10.37;46.54;101440.00;5285397;28;20178;-81
2022/03/11 07:30:24;;;;;;;13.70;8.85;;;;;;;10.62;46.39;101416.59;5284657;28;41352;-80
2022/03/11 07:32:56;;;;;;;11.05;8.88;;;;;;;10.89;45.45;101450.81;5285871;28;20019;-80
2022/03/11 07:35:27;;;;;;;13.80;8.90;;;;;;;11.21;44.95;101438.38;5286290;28;20025;-78
2022/03/11 07:37:58;;;;;;;11.60;8.75;;;;;;;11.53;44.23;101443.56;5285555;28;20045;-78
2022/03/11 07:40:30;;;;;;;13.38;8.80;;;;;;;12.10;43.24;101436.75;5276510;28;42479;-78
2022/03/11 07:43:02;;;;;;;16.48;8.75;;;;;;;12.29;42.49;101449.31;5264563;28;20108;-79
2022/03/11 07:45:33;;;;;;;14.40;8.73;;;;;;;12.41;42.01;101442.03;5272013;28;20389;-78
2022/03/11 07:48:05;;;;;;;16.55;9.43;;;;;;;12.58;40.33;101443.13;5284538;28;20021;-79
2022/03/11 07:50:36;;;;;;;12.38;8.55;;;;;;;13.08;40.96;101428.72;5285883;28;20017;-79
2022/03/11 07:53:07;;;;;;;14.35;10.00;;;;;;;13.25;39.90;101432.47;5285861;28;20025;-79
2022/03/11 07:55:38;;;;;;;14.32;9.60;;;;;;;12.96;39.25;101424.53;5286681;28;20087;-78
2022/03/11 07:58:10;;;;;;;15.82;9.38;;;;;;;13.30;39.04;101416.78;5285035;28;20021;-79
2022/03/11 08:00:42;;;;;;;13.10;9.57;;;;;;;13.80;38.20;101418.31;5268459;28;20017;-79
2022/03/11 08:03:13;;;;;;;10.65;8.63;;;;;;;13.92;37.93;101427.84;5273642;28;20052;-78
2022/03/11 08:05:44;;;;;;;11.65;9.32;;;;;;;14.52;36.88;101397.75;5265271;28;20554;-79
2022/03/11 08:08:16;;;;;;;14.85;9.40;;;;;;;14.93;36.22;101408.00;5276076;28;20025;-79
2022/03/11 08:10:48;;;;;;;17.17;9.95;;;;;;;15.03;35.20;101392.63;5284415;28;20029;-79
2022/03/11 08:13:20;;;;;;;13.43;10.18;;;;;;;15.13;34.92;101403.28;5284106;28;20037;-79
2022/03/11 08:15:53;;;;;;;13.38;9.60;;;;;;;15.41;34.96;101398.56;5284763;28;20040;-79
2022/03/11 08:18:24;;;;;;;12.93;8.90;;;;;;;15.25;34.39;101401.13;5284907;28;20110;-79
2022/03/11 08:20:55;;;;;;;11.05;9.15;;;;;;;15.63;34.25;101388.22;5283873;28;20438;-79
2022/03/11 08:23:27;;;;;;;13.65;9.40;;;;;;;15.85;34.01;101402.97;5284463;28;20107;-80
2022/03/11 08:25:58;;;;;;;14.57;9.43;;;;;;;16.65;33.36;101407.75;5283993;28;20024;-80
2022/03/11 08:28:30;;;;;;;14.20;9.68;;;;;;;17.17;32.24;101415.47;5283637;28;20029;-80
2022/03/11 08:31:01;;;;;;;13.82;10.07;;;;;;;17.15;31.90;101405.91;5275180;28;20017;-80
2022/03/11 08:33:35;;;;;;;12.80;9.48;;;;;;;17.57;31.25;101405.59;5283994;28;20029;-79
2022/03/11 08:36:07;;;;;;;13.23;10.98;;;;;;;17.86;30.91;101398.72;5283551;28;20044;-79
2022/03/11 08:38:39;;;;;;;15.18;10.35;;;;;;;18.17;30.49;101399.75;5284000;28;20017;-80
2022/03/11 08:41:11;;;;;;;11.85;10.05;;;;;;;17.88;30.04;101388.63;5284090;28;20286;-80
2022/03/11 08:43:43;;;;;;;13.52;9.82;;;;;;;18.63;29.92;101378.09;5282700;28;20147;-80
2022/03/11 08:46:15;;;;;;;13.93;9.70;;;;;;;18.95;29.64;101397.75;5284159;28;20541;-80
2022/03/11 08:48:46;;;;;;;14.27;10.70;;;;;;;19.03;28.80;101386.88;5265480;28;20059;-80
2022/03/11 08:51:18;;;;;;;15.25;10.07;;;;;;;19.65;28.37;101381.09;5283338;28;20486;-80
2022/03/11 08:53:49;;;;;;;16.33;9.85;;;;;;;19.75;28.01;101380.78;5283771;28;20049;-80
2022/03/11 08:56:22;;;;;;;11.75;10.13;;;;;;;20.11;27.92;101379.09;5279475;28;20152;-80
2022/03/11 08:58:53;;;;;;;14.15;10.18;;;;;;;21.18;27.46;101375.44;5283400;28;20469;-80
2022/03/11 09:01:24;;;;;;;14.88;10.20;;;;;;;21.20;26.19;101384.22;5283911;28;20023;-80
2022/03/11 09:03:55;;;;;;;16.77;10.63;;;;;;;20.56;26.86;101380.59;5283215;28;20021;-80
2022/03/11 09:06:27;;;;;;;13.93;9.75;;;;;;;20.99;26.69;101368.03;5283786;28;20094;-80
2022/03/11 09:08:58;;;;;;;13.18;9.82;;;;;;;21.58;26.14;101382.94;5269816;28;20474;-80
2022/03/11 09:11:31;;;;;;;12.32;9.88;;;;;;;21.95;25.98;101375.34;5249497;28;20091;-80
2022/03/11 09:14:03;;;;;;;13.93;10.02;;;;;;;22.92;25.08;101373.97;5264499;28;20075;-80
2022/03/11 09:16:34;;;;;;;12.95;9.85;;;;;;;22.58;25.21;101372.31;5264977;28;20032;-80
2022/03/11 09:19:06;;;;;;;17.23;9.98;;;;;;;22.67;25.14;101373.81;5283225;28;20025;-80
2022/03/11 09:21:37;;;;;;;14.75;9.57;;;;;;;22.03;24.66;101375.16;5283426;28;20060;-80
2022/03/11 09:24:08;;;;;;;15.65;9.95;;;;;;;22.33;25.00;101363.97;5282827;28;20106;-80
2022/03/11 09:26:40;;;;;;;14.13;10.48;;;;;;;22.17;24.88;101363.28;5282121;28;20505;-80
2022/03/11 09:29:11;;;;;;;14.88;10.70;;;;;;;22.33;24.66;101355.81;5283395;28;20027;-80
2022/03/11 09:31:43;;;;;;;15.55;10.25;;;;;;;22.32;24.87;101359.56;5282480;28;20389;-80
2022/03/11 09:34:14;;;;;;;11.98;10.07;;;;;;;22.17;25.06;101346.97;5283350;28;20045;-80
2022/03/11 09:36:45;;;;;;;12.68;10.60;;;;;;;22.47;25.06;101357.47;5282934;28;20083;-80
2022/03/11 09:39:17;;;;;;;15.95;10.10;;;;;;;22.62;25.42;101349.97;5265508;28;20068;-80
2022/03/11 09:41:48;;;;;;;22.60;10.00;;;;;;;24.03;23.57;101358.53;5281849;28;20033;-80
2022/03/11 09:44:20;;;;;;;13.38;10.13;;;;;;;23.25;23.85;101343.19;5282831;28;20511;-80
2022/03/11 09:46:51;;;;;;;12.38;9.55;;;;;;;23.47;23.94;101334.72;5264734;28;20055;-80
2022/03/11 09:49:23;;;;;;;15.10;9.85;;;;;;;22.90;24.42;101332.56;5283779;28;20453;-80
2022/03/11 09:51:55;;;;;;;17.65;9.80;;;;;;;24.32;23.80;101335.25;5264569;28;20025;-80
2022/03/11 09:54:26;;;;;;;11.90;9.68;;;;;;;25.31;23.04;101325.53;5283229;28;20021;-80
2022/03/11 09:56:58;;;;;;;15.50;9.90;;;;;;;25.51;21.82;101311.59;5282075;28;20033;-80
2022/03/11 09:59:30;;;;;;;14.18;9.48;;;;;;;25.25;22.41;101311.72;5260432;28;20044;-80
2022/03/11 10:02:01;;;;;;;16.38;9.82;;;;;;;25.54;21.75;101309.25;5266094;28;20449;-80
2022/03/11 10:04:33;;;;;;;13.75;9.65;;;;;;;25.54;21.79;101303.78;5283015;28;20445;-80
2022/03/11 10:07:20;;;;;;;12.75;9.35;;;;;;;24.81;22.68;101307.38;5282100;28;20068;-80
2022/03/11 10:09:54;;;;;;;15.25;10.32;;;;;;;23.96;23.38;101316.88;5282093;28;20454;-80
2022/03/11 10:12:28;;;;;;;13.98;10.15;;;;;;;24.00;23.66;101311.81;5281518;28;20158;-80
2022/03/11 10:15:02;;;;;;;11.52;10.00;;;;;;;24.32;23.39;101315.34;5282676;28;20019;-80
2022/03/11 10:17:44;;;;;;;15.85;9.77;;;;;;;25.28;23.06;101299.50;5282258;28;20489;-80
2022/03/11 10:20:16;;;;;;;13.15;10.30;;;;;;;25.32;22.48;101283.53;5282959;28;20021;-81
2022/03/11 10:22:47;;;;;;;16.40;9.63;;;;;;;24.88;22.65;101278.97;5283944;28;20021;-80
2022/03/11 10:25:28;;;;;;;12.90;9.98;;;;;;;24.65;23.34;101276.91;5284256;28;20047;-80
2022/03/11 10:28:14;;;;;;;15.52;9.52;;;;;;;25.92;22.53;101291.69;5265088;28;20371;-80
2022/03/11 10:30:45;;;;;;;14.98;9.55;;;;;;;25.97;21.72;101291.03;5268513;28;20510;-79
2022/03/11 10:33:16;;;;;;;14.20;9.65;;;;;;;26.36;21.98;101281.31;5274117;28;20159;-81
2022/03/11 10:35:48;;;;;;;14.20;10.40;;;;;;;26.78;21.45;101281.19;5282324;28;20107;-80
2022/03/11 10:38:26;;;;;;;13.18;9.82;;;;;;;27.82;20.64;101279.44;5282200;28;20040;-81
2022/03/11 10:40:58;;;;;;;13.20;9.88;;;;;;;27.75;20.37;101269.72;5281827;28;20605;-80
2022/03/11 10:43:31;;;;;;;10.32;9.18;;;;;;;27.05;21.11;101267.00;5281808;28;20049;-80
2022/03/11 10:46:02;;;;;;;13.52;9.80;;;;;;;27.13;21.22;101258.38;5282067;28;20033;-81
2022/03/11 10:48:48;;;;;;;15.77;8.87;;;;;;;26.96;21.42;101258.34;5264147;28;20029;-80
2022/03/11 10:51:32;;;;;;;13.80;9.60;;;;;;;27.30;21.70;101263.97;5281698;28;20025;-80
2022/03/11 10:54:07;;;;;;;14.95;9.68;;;;;;;27.55;21.21;101238.13;5282508;28;20036;-81
2022/03/11 10:56:40;;;;;;;12.23;8.63;;;;;;;27.45;21.17;101252.47;5281550;28;20371;-81
2022/03/11 10:59:23;;;;;;;13.20;9.43;;;;;;;27.99;20.82;101241.09;5282376;28;20021;-81
2022/03/11 11:01:57;;;;;;;11.80;8.77;;;;;;;27.78;20.89;101247.31;5279261;28;20029;-81
2022/03/11 11:04:28;;;;;;;14.10;9.75;;;;;;;27.94;20.54;101234.72;5262088;28;20471;-81
2022/03/11 11:07:00;;;;;;;22.40;10.65;;;;;;;28.17;20.29;101236.44;5261409;28;20072;-81
2022/03/11 11:09:31;;;;;;;14.38;10.13;;;;;;;28.11;20.11;101232.78;5261515;28;20492;-81
2022/03/11 11:12:03;;;;;;;13.68;10.43;;;;;;;28.24;20.42;101239.84;5260649;28;20429;-81
2022/03/11 11:14:34;;;;;;;14.43;10.68;;;;;;;27.58;20.75;101234.06;5281447;28;20032;-80
2022/03/11 11:17:06;;;;;;;14.35;10.60;;;;;;;27.53;20.49;101230.16;5282347;28;20539;-80
2022/03/11 11:19:38;;;;;;;13.27;10.25;;;;;;;26.33;21.55;101229.84;5271231;28;20491;-80
2022/03/11 11:22:10;;;;;;;16.23;10.38;;;;;;;26.14;21.63;101223.66;5242801;28;20026;-80
2022/03/11 11:24:42;;;;;;;14.68;10.50;;;;;;;26.47;21.46;101211.25;5243485;28;20024;-80
2022/03/11 11:27:14;;;;;;;14.95;10.50;;;;;;;26.85;21.00;101248.22;5276407;28;20029;-81
2022/03/11 11:29:48;;;;;;;20.38;12.50;;;;;;;26.85;21.48;101233.72;5281940;28;20053;-80
2022/03/11 11:32:20;;;;;;;18.33;11.23;;;;;;;25.56;22.11;101222.47;5283021;28;20083;-80
2022/03/11 11:34:52;;;;;;;12.63;10.85;;;;;;;26.49;21.99;101202.81;5284649;28;20025;-80
2022/03/11 11:37:39;;;;;;;14.63;11.23;;;;;;;27.69;20.91;101208.50;5267025;28;20064;-80
2022/03/11 11:40:22;;;;;;;16.13;11.30;;;;;;;27.79;20.82;101196.88;5284970;28;20025;-80